Ashiya — JD2302 — position and weather

sailwx.info

Track history (hours):
 
Tides and Currents Weather Stations Pressure Air Temp Water Temp Dewpoint Dewpoint Depression Visibility Wind Speed Wind Dir Waves Ship Positions

Ashiya

Last reported at 2017-Sep-22 00:21 UTC. Time now 2017-Sep-22 00:45 UTC.
Position N 34°37' E 135°15'.

Length 96 m; draft 4.5 m.

Type: Cargo ship. MMSI: 431501871.

Date/timePositionNaut miles runAvg speedWind from/ knotsBaromVisibWave heightAir tempDewpointWater temp
2017-Sep-22 00:21N 34°37' E 135°15'0 0.0
2017-Sep-21 23:57N 34°37' E 135°15'0 0.0
2017-Sep-21 22:45N 34°37' E 135°15'0 0.0
2017-Sep-21 22:21N 34°37' E 135°15'0 0.0
2017-Sep-21 21:57N 34°37' E 135°15'0 0.0
2017-Sep-21 21:27N 34°37' E 135°15'0 0.0
2017-Sep-21 20:57N 34°37' E 135°15'0 0.0
2017-Sep-21 20:27N 34°37' E 135°15'0 0.0
2017-Sep-21 19:57N 34°37' E 135°15'0 0.0
2017-Sep-21 19:27N 34°37' E 135°15'2 4.6
2017-Sep-21 19:00N 34°36' E 135°13'612.0
2017-Sep-21 18:30N 34°35' E 135°06'714.5
2017-Sep-21 18:00N 34°36' E 134°57'814.4
2017-Sep-21 17:25N 34°33' E 134°47'2 0.1
2017-Sep-20 09:05N 34°34' E 134°50'213.2
2017-Sep-20 08:58N 34°35' E 134°52'612.7
2017-Sep-20 08:30N 34°37' E 134°58'511.0
2017-Sep-20 08:00N 34°35' E 135°04'611.5
2017-Sep-20 07:30N 34°36' E 135°11'4 8.7
2017-Sep-20 06:59N 34°39' E 135°16'1 2.2
2017-Sep-20 06:30N 34°40' E 135°14'0 0.0
2017-Sep-20 06:00N 34°40' E 135°14'0 0.5
2017-Sep-20 05:30N 34°40' E 135°15'2 4.1
2017-Sep-20 05:00N 34°41' E 135°17'0 0.0
2017-Sep-20 04:28N 34°41' E 135°17'0 0.0
2017-Sep-20 03:58N 34°41' E 135°17'0 0.0
2017-Sep-20 03:28N 34°41' E 135°17'0 0.0
2017-Sep-20 02:58N 34°41' E 135°17'0 0.0
2017-Sep-20 02:28N 34°41' E 135°17'0 0.0
2017-Sep-20 02:01N 34°41' E 135°17'0 0.4
2017-Sep-20 01:31N 34°41' E 135°16'0 0.0
2017-Sep-20 01:01N 34°41' E 135°16'4 7.8
2017-Sep-20 00:31N 34°37' E 135°15'0 0.1
2017-Sep-19 23:58N 34°37' E 135°15'0 0.0
2017-Sep-19 23:28N 34°37' E 135°15'0 0.1
2017-Sep-19 22:58N 34°37' E 135°15'0 0.0
2017-Sep-19 22:28N 34°37' E 135°15'0 0.1
2017-Sep-19 21:58N 34°37' E 135°15'0 0.0
2017-Sep-19 21:28N 34°37' E 135°15'0 0.0
2017-Sep-19 20:59N 34°37' E 135°15'0 0.5
2017-Sep-19 20:31N 34°37' E 135°15'713.5
2017-Sep-19 20:00N 34°35' E 135°07'713.4
2017-Sep-19 19:30N 34°37' E 134°59'713.8
2017-Sep-19 18:59N 34°34' E 134°51'5 0.1
2017-Sep-18 09:25N 34°33' E 134°46'615.1
2017-Sep-18 09:00N 34°35' E 134°53'714.4
2017-Sep-18 08:30N 34°37' E 135°01'611.7
2017-Sep-18 08:00N 34°36' E 135°08'612.1
2017-Sep-18 07:30N 34°37' E 135°15'3 5.5
2017-Sep-18 07:00N 34°40' E 135°14'0 0.0
2017-Sep-18 06:30N 34°40' E 135°14'0 0.0
2017-Sep-18 06:00N 34°40' E 135°14'0 0.0
2017-Sep-18 05:31N 34°40' E 135°14'0 0.0
2017-Sep-18 05:00N 34°40' E 135°14'0 0.5
2017-Sep-18 04:30N 34°40' E 135°14'0 0.5
2017-Sep-18 04:00N 34°40' E 135°14'0 0.0
2017-Sep-18 03:30N 34°40' E 135°14'0 0.0
2017-Sep-18 03:00N 34°40' E 135°14'0 0.0
2017-Sep-18 02:31N 34°40' E 135°14'2 4.4
2017-Sep-18 02:00N 34°41' E 135°17'0 0.0
2017-Sep-18 01:23N 34°41' E 135°17'2 4.4
2017-Sep-18 01:00N 34°40' E 135°15'510.0
2017-Sep-18 00:30N 34°36' E 135°11'612.3
2017-Sep-18 00:00N 34°35' E 135°04'612.2
2017-Sep-17 23:30N 34°36' E 134°56'612.1
2017-Sep-17 22:59N 34°33' E 134°49'  
2017-Sep-15 08:18N 34°36' E 134°54'415.3
2017-Sep-15 08:00N 34°37' E 134°59'714.1
2017-Sep-15 07:30N 34°36' E 135°07'713.5
2017-Sep-15 07:00N 34°37' E 135°15'2 5.0
2017-Sep-15 06:30N 34°40' E 135°14'0 0.0
2017-Sep-15 06:00N 34°40' E 135°14'1 2.8
2017-Sep-15 05:30N 34°40' E 135°16'1 1.8
2017-Sep-15 05:00N 34°41' E 135°17'0 0.1
2017-Sep-15 04:30N 34°41' E 135°17'0 0.0
2017-Sep-15 03:59N 34°41' E 135°17'0 0.0
2017-Sep-15 03:29N 34°41' E 135°17'0 0.0
2017-Sep-15 03:00N 34°41' E 135°17'0 0.0
2017-Sep-15 02:30N 34°41' E 135°17'0 0.1
2017-Sep-15 01:57N 34°41' E 135°17'2 3.4
2017-Sep-15 01:30N 34°40' E 135°18'1 3.0
2017-Sep-15 01:00N 34°39' E 135°19'2 5.0
2017-Sep-15 00:30N 34°39' E 135°16'1 2.5
2017-Sep-14 23:54N 34°39' E 135°15'0 0.0
2017-Sep-14 23:30N 34°39' E 135°15'2 3.6
2017-Sep-14 23:00N 34°37' E 135°15'1 1.3
2017-Sep-14 22:25N 34°37' E 135°15'0 0.0
2017-Sep-14 21:55N 34°37' E 135°15'0 0.0
2017-Sep-14 21:25N 34°37' E 135°15'0 0.0
2017-Sep-14 20:53N 34°37' E 135°15'3 8.6
2017-Sep-14 20:31N 34°36' E 135°11'611.3
2017-Sep-14 20:00N 34°35' E 135°05'611.1
2017-Sep-14 19:31N 34°37' E 134°58'611.8
2017-Sep-14 19:00N 34°34' E 134°51'1 0.0
2017-Sep-13 08:52N 34°35' E 134°52'512.3
2017-Sep-13 08:28N 34°37' E 134°57'511.4
2017-Sep-13 08:00N 34°36' E 135°04'612.0
2017-Sep-13 07:30N 34°36' E 135°11'612.5
2017-Sep-13 07:00N 34°36' E 135°18'510.7
2017-Sep-13 06:30N 34°37' E 135°25'0 0.4
2017-Sep-13 06:00N 34°37' E 135°25'5 9.9
2017-Sep-13 05:30N 34°37' E 135°19'5 9.2
2017-Sep-13 05:00N 34°40' E 135°14'0 0.0
2017-Sep-13 04:22N 34°40' E 135°14'0 0.0
2017-Sep-13 04:00N 34°40' E 135°14'4 8.1
2017-Sep-13 03:31N 34°38' E 135°19'0 0.2
2017-Sep-13 03:00N 34°38' E 135°19'0 0.0
2017-Sep-13 02:31N 34°38' E 135°19'3 5.0
2017-Sep-13 02:00N 34°41' E 135°18'1 1.8
2017-Sep-13 01:30N 34°41' E 135°17'0 0.0
2017-Sep-13 01:01N 34°41' E 135°17'1 2.0
2017-Sep-13 00:31N 34°40' E 135°16'4 7.4
2017-Sep-13 00:01N 34°37' E 135°15'0 0.1
2017-Sep-12 23:29N 34°37' E 135°15'0 0.0
2017-Sep-12 22:59N 34°37' E 135°15'0 0.0
2017-Sep-12 22:23N 34°37' E 135°15'0 0.0
2017-Sep-12 21:35N 34°37' E 135°15'0 0.1
2017-Sep-12 21:29N 34°37' E 135°15'1 2.5
2017-Sep-12 21:00N 34°36' E 135°14'613.2
2017-Sep-12 20:30N 34°35' E 135°06'714.4
2017-Sep-12 20:00N 34°37' E 134°57'714.1
2017-Sep-12 19:30N 34°34' E 134°50'713.0
2017-Sep-12 19:00N 34°31' E 134°42'  
Track history (hours):
 
Tides and Currents Weather Stations Pressure Air Temp Water Temp Dewpoint Dewpoint Depression Visibility Wind Speed Wind Dir Waves Ship Positions

Ashiya

Last reported at 2017-Sep-22 00:21 UTC. Time now 2017-Sep-22 00:45 UTC.
Position N 34°37' E 135°15'.

Length 96 m; draft 4.5 m.

Type: Cargo ship. MMSI: 431501871.

Date/timePositionNaut miles runAvg speedWind from/ knotsBaromVisibWave heightAir tempDewpointWater temp
2017-Sep-22 00:21N 34°37' E 135°15'0 0.0
2017-Sep-21 23:57N 34°37' E 135°15'0 0.0
2017-Sep-21 22:45N 34°37' E 135°15'0 0.0
2017-Sep-21 22:21N 34°37' E 135°15'0 0.0
2017-Sep-21 21:57N 34°37' E 135°15'0 0.0
2017-Sep-21 21:27N 34°37' E 135°15'0 0.0
2017-Sep-21 20:57N 34°37' E 135°15'0 0.0
2017-Sep-21 20:27N 34°37' E 135°15'0 0.0
2017-Sep-21 19:57N 34°37' E 135°15'0 0.0
2017-Sep-21 19:27N 34°37' E 135°15'2 4.6
2017-Sep-21 19:00N 34°36' E 135°13'612.0
2017-Sep-21 18:30N 34°35' E 135°06'714.5
2017-Sep-21 18:00N 34°36' E 134°57'814.4
2017-Sep-21 17:25N 34°33' E 134°47'2 0.1
2017-Sep-20 09:05N 34°34' E 134°50'213.2
2017-Sep-20 08:58N 34°35' E 134°52'612.7
2017-Sep-20 08:30N 34°37' E 134°58'511.0
2017-Sep-20 08:00N 34°35' E 135°04'611.5
2017-Sep-20 07:30N 34°36' E 135°11'4 8.7
2017-Sep-20 06:59N 34°39' E 135°16'1 2.2
2017-Sep-20 06:30N 34°40' E 135°14'0 0.0
2017-Sep-20 06:00N 34°40' E 135°14'0 0.5
2017-Sep-20 05:30N 34°40' E 135°15'2 4.1
2017-Sep-20 05:00N 34°41' E 135°17'0 0.0
2017-Sep-20 04:28N 34°41' E 135°17'0 0.0
2017-Sep-20 03:58N 34°41' E 135°17'0 0.0
2017-Sep-20 03:28N 34°41' E 135°17'0 0.0
2017-Sep-20 02:58N 34°41' E 135°17'0 0.0
2017-Sep-20 02:28N 34°41' E 135°17'0 0.0
2017-Sep-20 02:01N 34°41' E 135°17'0 0.4
2017-Sep-20 01:31N 34°41' E 135°16'0 0.0
2017-Sep-20 01:01N 34°41' E 135°16'4 7.8
2017-Sep-20 00:31N 34°37' E 135°15'0 0.1
2017-Sep-19 23:58N 34°37' E 135°15'0 0.0
2017-Sep-19 23:28N 34°37' E 135°15'0 0.1
2017-Sep-19 22:58N 34°37' E 135°15'0 0.0
2017-Sep-19 22:28N 34°37' E 135°15'0 0.1
2017-Sep-19 21:58N 34°37' E 135°15'0 0.0
2017-Sep-19 21:28N 34°37' E 135°15'0 0.0
2017-Sep-19 20:59N 34°37' E 135°15'0 0.5
2017-Sep-19 20:31N 34°37' E 135°15'713.5
2017-Sep-19 20:00N 34°35' E 135°07'713.4
2017-Sep-19 19:30N 34°37' E 134°59'713.8
2017-Sep-19 18:59N 34°34' E 134°51'5 0.1
2017-Sep-18 09:25N 34°33' E 134°46'615.1
2017-Sep-18 09:00N 34°35' E 134°53'714.4
2017-Sep-18 08:30N 34°37' E 135°01'611.7
2017-Sep-18 08:00N 34°36' E 135°08'612.1
2017-Sep-18 07:30N 34°37' E 135°15'3 5.5
2017-Sep-18 07:00N 34°40' E 135°14'0 0.0
2017-Sep-18 06:30N 34°40' E 135°14'0 0.0
2017-Sep-18 06:00N 34°40' E 135°14'0 0.0
2017-Sep-18 05:31N 34°40' E 135°14'0 0.0
2017-Sep-18 05:00N 34°40' E 135°14'0 0.5
2017-Sep-18 04:30N 34°40' E 135°14'0 0.5
2017-Sep-18 04:00N 34°40' E 135°14'0 0.0
2017-Sep-18 03:30N 34°40' E 135°14'0 0.0
2017-Sep-18 03:00N 34°40' E 135°14'0 0.0
2017-Sep-18 02:31N 34°40' E 135°14'2 4.4
2017-Sep-18 02:00N 34°41' E 135°17'0 0.0
2017-Sep-18 01:23N 34°41' E 135°17'2 4.4
2017-Sep-18 01:00N 34°40' E 135°15'510.0
2017-Sep-18 00:30N 34°36' E 135°11'612.3
2017-Sep-18 00:00N 34°35' E 135°04'612.2
2017-Sep-17 23:30N 34°36' E 134°56'612.1
2017-Sep-17 22:59N 34°33' E 134°49'  
2017-Sep-15 08:18N 34°36' E 134°54'415.3
2017-Sep-15 08:00N 34°37' E 134°59'714.1
2017-Sep-15 07:30N 34°36' E 135°07'713.5
2017-Sep-15 07:00N 34°37' E 135°15'2 5.0
2017-Sep-15 06:30N 34°40' E 135°14'0 0.0
2017-Sep-15 06:00N 34°40' E 135°14'1 2.8
2017-Sep-15 05:30N 34°40' E 135°16'1 1.8
2017-Sep-15 05:00N 34°41' E 135°17'0 0.1
2017-Sep-15 04:30N 34°41' E 135°17'0 0.0
2017-Sep-15 03:59N 34°41' E 135°17'0 0.0
2017-Sep-15 03:29N 34°41' E 135°17'0 0.0
2017-Sep-15 03:00N 34°41' E 135°17'0 0.0
2017-Sep-15 02:30N 34°41' E 135°17'0 0.1
2017-Sep-15 01:57N 34°41' E 135°17'2 3.4
2017-Sep-15 01:30N 34°40' E 135°18'1 3.0
2017-Sep-15 01:00N 34°39' E 135°19'2 5.0
2017-Sep-15 00:30N 34°39' E 135°16'1 2.5
2017-Sep-14 23:54N 34°39' E 135°15'0 0.0
2017-Sep-14 23:30N 34°39' E 135°15'2 3.6
2017-Sep-14 23:00N 34°37' E 135°15'1 1.3
2017-Sep-14 22:25N 34°37' E 135°15'0 0.0
2017-Sep-14 21:55N 34°37' E 135°15'0 0.0
2017-Sep-14 21:25N 34°37' E 135°15'0 0.0
2017-Sep-14 20:53N 34°37' E 135°15'3 8.6
2017-Sep-14 20:31N 34°36' E 135°11'611.3
2017-Sep-14 20:00N 34°35' E 135°05'611.1
2017-Sep-14 19:31N 34°37' E 134°58'611.8
2017-Sep-14 19:00N 34°34' E 134°51'1 0.0
2017-Sep-13 08:52N 34°35' E 134°52'512.3
2017-Sep-13 08:28N 34°37' E 134°57'511.4
2017-Sep-13 08:00N 34°36' E 135°04'612.0
2017-Sep-13 07:30N 34°36' E 135°11'612.5
2017-Sep-13 07:00N 34°36' E 135°18'510.7
2017-Sep-13 06:30N 34°37' E 135°25'0 0.4
2017-Sep-13 06:00N 34°37' E 135°25'5 9.9
2017-Sep-13 05:30N 34°37' E 135°19'5 9.2
2017-Sep-13 05:00N 34°40' E 135°14'0 0.0
2017-Sep-13 04:22N 34°40' E 135°14'0 0.0
2017-Sep-13 04:00N 34°40' E 135°14'4 8.1
2017-Sep-13 03:31N 34°38' E 135°19'0 0.2
2017-Sep-13 03:00N 34°38' E 135°19'0 0.0
2017-Sep-13 02:31N 34°38' E 135°19'3 5.0
2017-Sep-13 02:00N 34°41' E 135°18'1 1.8
2017-Sep-13 01:30N 34°41' E 135°17'0 0.0
2017-Sep-13 01:01N 34°41' E 135°17'1 2.0
2017-Sep-13 00:31N 34°40' E 135°16'4 7.4
2017-Sep-13 00:01N 34°37' E 135°15'0 0.1
2017-Sep-12 23:29N 34°37' E 135°15'0 0.0
2017-Sep-12 22:59N 34°37' E 135°15'0 0.0
2017-Sep-12 22:23N 34°37' E 135°15'0 0.0
2017-Sep-12 21:35N 34°37' E 135°15'0 0.1
2017-Sep-12 21:29N 34°37' E 135°15'1 2.5
2017-Sep-12 21:00N 34°36' E 135°14'613.2
2017-Sep-12 20:30N 34°35' E 135°06'714.4
2017-Sep-12 20:00N 34°37' E 134°57'714.1
2017-Sep-12 19:30N 34°34' E 134°50'713.0
2017-Sep-12 19:00N 34°31' E 134°42'  

Dump ship's entire track history